Terminal Aerodrome Forecast
Issued by NWS

Home | Current Version | Previous Version | Text Only | Print | Product List | Glossary On
Versions: 1 2 3 4 5 6 7 8 9 10 11 12 13 14 15 16 17 18 19 20 21 22 23 24 25 26 27 28 29 30 31
000
FTUS42 KMHX 280500 RRA
TAFPGV
TAF
KPGV 280548Z 2806/2906 22004KT P6SM BKN150
     FM281200 23007KT P6SM OVC080
     FM281700 23006KT P6SM OVC040
     FM282200 23003KT 5SM BR VCSH OVC015
     FM290300 22002KT 2SM BR VCSH OVC009
      AMD LTD TO CLD VIS AND WIND=

USA.gov is the U.S. government's official web portal to all federal, state and local government web resources and services.